Time;durP1;ratioP1;P1;durP2;ratioP2;P2;SDS_P1;SDS_P2;PMS_P1;PMS_P2;Temp;Humidity;BMP_temperature;BMP_pressure;BME280_temperature;BME280_humidity;BME280_pressure;Samples;Min_cycle;Max_cycle;Signal;HPM_P1;HPM_P2
2021/12/20 00:01:17;;;;;;;70.75;51.50;;;17.40;59.00;;;;;;4947002;28;90128;-70
2021/12/20 00:03:43;;;;;;;70.80;51.30;;;17.40;58.80;;;;;;4947955;28;90671;-70
2021/12/20 00:06:08;;;;;;;70.25;51.35;;;17.40;59.00;;;;;;4950697;28;89592;-70
2021/12/20 00:08:36;;;;;;;69.80;51.33;;;17.40;59.10;;;;;;4951898;28;89648;-70
2021/12/20 00:11:02;;;;;;;70.25;51.38;;;17.30;59.10;;;;;;4945834;28;89975;-70
2021/12/20 00:13:28;;;;;;;71.20;51.40;;;17.30;59.20;;;;;;4948029;28;90103;-70
2021/12/20 00:15:55;;;;;;;70.25;51.17;;;17.30;59.10;;;;;;4945705;28;90957;-70
2021/12/20 00:18:20;;;;;;;70.35;51.53;;;17.20;59.10;;;;;;4941839;28;90322;-70
2021/12/20 00:20:46;;;;;;;69.18;51.13;;;17.30;59.00;;;;;;4941827;28;90510;-70
2021/12/20 00:23:12;;;;;;;70.32;51.20;;;17.20;59.30;;;;;;4941116;28;93639;-70
2021/12/20 00:25:37;;;;;;;70.30;50.85;;;17.20;59.20;;;;;;4936615;28;92538;-70
2021/12/20 00:28:03;;;;;;;69.95;50.97;;;17.20;59.40;;;;;;4933278;28;91195;-70
2021/12/20 00:30:29;;;;;;;69.75;50.97;;;17.20;59.20;;;;;;4946663;28;92534;-70
2021/12/20 00:32:55;;;;;;;71.28;51.55;;;17.20;59.30;;;;;;4948462;28;90753;-71
2021/12/20 00:35:24;;;;;;;70.60;51.28;;;17.10;59.30;;;;;;4946529;28;91076;-70
2021/12/20 00:40:37;;;;;;;69.32;50.85;;;17.10;59.40;;;;;;4950735;28;89336;-70
2021/12/20 00:43:04;;;;;;;69.93;51.30;;;17.10;59.30;;;;;;4945831;28;90432;-70
2021/12/20 00:45:34;;;;;;;70.97;51.15;;;17.10;59.30;;;;;;4945789;28;89854;-70
2021/12/20 00:48:02;;;;;;;70.18;50.95;;;17.10;59.30;;;;;;4947361;28;90525;-71
2021/12/20 00:50:29;;;;;;;70.45;50.85;;;17.10;59.30;;;;;;4953556;28;91295;-71
2021/12/20 00:52:55;;;;;;;69.80;51.05;;;17.10;59.30;;;;;;4950426;28;89815;-70
2021/12/20 00:55:23;;;;;;;69.97;51.13;;;17.00;59.30;;;;;;4947782;28;90089;-70
2021/12/20 00:57:51;;;;;;;69.88;50.95;;;17.00;59.50;;;;;;4952226;28;90527;-70
2021/12/20 01:00:23;;;;;;;69.40;50.95;;;17.00;59.50;;;;;;4941739;28;91778;-71
2021/12/20 01:02:50;;;;;;;69.28;51.03;;;17.00;59.50;;;;;;4948802;28;90780;-71
2021/12/20 01:05:16;;;;;;;69.00;50.60;;;17.00;59.40;;;;;;4950305;28;92684;-70
2021/12/20 01:07:41;;;;;;;68.78;50.63;;;17.00;59.50;;;;;;4953264;28;91253;-70
2021/12/20 01:10:09;;;;;;;68.63;50.78;;;17.00;59.50;;;;;;4950311;28;90185;-71
2021/12/20 01:12:46;;;;;;;69.78;50.42;;;17.00;59.30;;;;;;4955698;28;91032;-71
2021/12/20 01:15:37;;;;;;;69.05;50.50;;;17.00;59.50;;;;;;677332;28;10092634;-70
2021/12/20 01:18:05;;;;;;;69.45;50.80;;;17.00;59.70;;;;;;4943932;28;91554;-71
2021/12/20 01:20:31;;;;;;;69.95;51.08;;;16.90;59.60;;;;;;4950557;28;89997;-70
2021/12/20 01:22:58;;;;;;;68.53;50.63;;;17.00;59.60;;;;;;4946104;28;90071;-70
2021/12/20 01:25:25;;;;;;;69.40;50.72;;;16.90;59.80;;;;;;4935860;28;91292;-70
2021/12/20 01:27:51;;;;;;;69.15;50.92;;;16.90;59.40;;;;;;4945670;28;90308;-70
2021/12/20 01:30:21;;;;;;;69.10;50.65;;;16.90;59.60;;;;;;4943070;28;90841;-70
2021/12/20 01:32:47;;;;;;;68.30;50.40;;;16.90;59.70;;;;;;4944900;28;89665;-70
2021/12/20 01:35:14;;;;;;;69.13;50.55;;;16.90;59.60;;;;;;4949916;28;90460;-70
2021/12/20 01:37:40;;;;;;;69.60;50.85;;;16.90;59.50;;;;;;4944553;28;91963;-70
2021/12/20 01:40:09;;;;;;;69.35;50.58;;;16.80;59.60;;;;;;4944389;28;91183;-70
2021/12/20 01:42:36;;;;;;;68.90;50.70;;;16.90;59.60;;;;;;4944366;28;89879;-70
2021/12/20 01:45:05;;;;;;;67.65;50.47;;;16.80;59.60;;;;;;4957042;28;89723;-70
2021/12/20 01:47:35;;;;;;;68.70;50.38;;;16.80;59.70;;;;;;4945643;28;91030;-71
2021/12/20 01:50:15;;;;;;;70.00;50.70;;;16.80;59.70;;;;;;4946344;28;91027;-70
2021/12/20 01:52:42;;;;;;;68.80;50.25;;;16.80;59.60;;;;;;4944533;28;90908;-70
2021/12/20 01:55:11;;;;;;;69.40;50.58;;;16.80;59.50;;;;;;4941185;28;89654;-70
2021/12/20 01:57:37;;;;;;;68.85;50.50;;;16.80;59.70;;;;;;4961387;28;90924;-70
2021/12/20 02:00:07;;;;;;;69.32;50.60;;;16.80;59.60;;;;;;4954415;28;92749;-70
2021/12/20 02:02:32;;;;;;;69.13;50.30;;;16.80;59.80;;;;;;4947209;28;91014;-70
2021/12/20 02:05:06;;;;;;;69.70;51.22;;;16.80;59.70;;;;;;4948749;28;90308;-70
2021/12/20 02:10:34;;;;;;;68.28;50.70;;;16.80;59.70;;;;;;4976158;28;89664;-70
2021/12/20 02:13:01;;;;;;;68.88;50.90;;;16.70;59.70;;;;;;4951591;28;90262;-70
2021/12/20 02:15:26;;;;;;;68.80;50.75;;;16.70;59.70;;;;;;4946119;28;90464;-70
2021/12/20 02:17:52;;;;;;;68.22;50.45;;;16.70;59.70;;;;;;4962962;28;90093;-70
2021/12/20 02:20:30;;;;;;;67.65;50.30;;;16.70;59.80;;;;;;4948122;28;90015;-70
2021/12/20 02:23:00;;;;;;;68.57;50.90;;;16.70;59.80;;;;;;4946007;28;90634;-70
2021/12/20 02:25:26;;;;;;;68.28;50.25;;;16.70;59.80;;;;;;4937767;28;91218;-70
2021/12/20 02:27:52;;;;;;;68.35;50.45;;;16.70;59.70;;;;;;4941532;28;91094;-71
2021/12/20 02:30:40;;;;;;;68.28;50.38;;;16.70;59.70;;;;;;4948707;28;90105;-70
2021/12/20 02:38:19;;;;;;;69.38;50.35;;;16.60;59.80;;;;;;4944379;28;91942;-70
2021/12/20 02:40:46;;;;;;;68.82;50.72;;;16.60;59.80;;;;;;4939459;28;90653;-70
2021/12/20 02:43:16;;;;;;;68.65;50.50;;;16.60;59.80;;;;;;4944823;28;95713;-71
2021/12/20 02:45:43;;;;;;;67.88;50.58;;;16.60;59.90;;;;;;4946698;28;89028;-70
2021/12/20 02:48:08;;;;;;;69.00;50.38;;;16.60;59.70;;;;;;4948718;28;91218;-71
2021/12/20 02:50:34;;;;;;;70.18;50.65;;;16.60;59.70;;;;;;4941705;28;90561;-71
2021/12/20 02:53:00;;;;;;;68.35;50.55;;;16.60;59.70;;;;;;4947039;28;90751;-70
2021/12/20 02:55:26;;;;;;;68.95;51.00;;;16.60;59.80;;;;;;4939368;28;89900;-71
2021/12/20 02:57:51;;;;;;;68.32;50.55;;;16.60;59.80;;;;;;4943935;28;90625;-70
2021/12/20 03:00:17;;;;;;;68.18;50.55;;;16.60;60.00;;;;;;4940759;28;91159;-70
2021/12/20 03:02:43;;;;;;;69.55;50.58;;;16.60;59.90;;;;;;4960008;28;91768;-71
2021/12/20 03:05:10;;;;;;;68.93;50.25;;;16.60;59.80;;;;;;4945871;28;89816;-70
2021/12/20 03:07:46;;;;;;;68.10;50.60;;;16.60;59.90;;;;;;4942142;28;89994;-71
2021/12/20 03:10:13;;;;;;;68.63;50.53;;;16.60;60.00;;;;;;4941681;28;89740;-71
2021/12/20 03:12:39;;;;;;;67.75;50.67;;;16.60;60.00;;;;;;4941171;28;91024;-71
2021/12/20 03:15:12;;;;;;;68.80;50.47;;;16.60;60.00;;;;;;4941451;28;90600;-70
2021/12/20 03:17:38;;;;;;;69.85;50.95;;;16.60;59.90;;;;;;4959333;28;91681;-70
2021/12/20 03:20:04;;;;;;;68.25;50.78;;;16.60;60.00;;;;;;4942596;28;90610;-70
2021/12/20 03:22:30;;;;;;;68.97;50.58;;;16.50;59.80;;;;;;4960271;28;90721;-70
2021/12/20 03:24:56;;;;;;;69.57;50.78;;;16.50;59.80;;;;;;4943925;28;89993;-70
2021/12/20 03:27:21;;;;;;;70.22;50.80;;;16.60;59.80;;;;;;4938357;28;91023;-70
2021/12/20 03:29:47;;;;;;;69.53;50.33;;;16.50;59.90;;;;;;4940086;28;89922;-70
2021/12/20 03:32:13;;;;;;;68.47;50.53;;;16.50;59.70;;;;;;4940945;28;96082;-71
2021/12/20 03:34:38;;;;;;;67.68;50.35;;;16.50;59.80;;;;;;4943237;28;90414;-70
2021/12/20 03:37:04;;;;;;;68.53;50.58;;;16.50;59.90;;;;;;4947477;28;90490;-71
2021/12/20 03:39:30;;;;;;;68.60;50.67;;;16.50;59.80;;;;;;4944477;28;92390;-70
2021/12/20 03:41:55;;;;;;;70.63;50.58;;;16.50;59.90;;;;;;4943607;28;95902;-70
2021/12/20 03:44:21;;;;;;;67.85;50.50;;;16.50;59.90;;;;;;4939280;28;90686;-70
2021/12/20 03:46:47;;;;;;;68.10;50.17;;;16.50;59.90;;;;;;4946315;28;90759;-70
2021/12/20 03:49:13;;;;;;;68.50;50.78;;;16.50;59.90;;;;;;4947643;28;90140;-70
2021/12/20 03:51:38;;;;;;;68.18;50.42;;;16.50;59.90;;;;;;4942895;28;95740;-70
2021/12/20 03:54:05;;;;;;;68.40;50.33;;;16.50;60.10;;;;;;4942610;28;92134;-71
2021/12/20 03:56:31;;;;;;;68.97;50.53;;;16.50;59.90;;;;;;4951826;28;90589;-71
2021/12/20 03:58:56;;;;;;;68.72;50.78;;;16.60;60.00;;;;;;4939954;28;90144;-70
2021/12/20 04:01:22;;;;;;;69.22;50.40;;;16.70;60.00;;;;;;4944392;28;89851;-70
2021/12/20 04:03:49;;;;;;;69.70;50.58;;;16.80;60.40;;;;;;4949021;28;91261;-70
2021/12/20 04:06:15;;;;;;;68.15;50.35;;;16.90;59.50;;;;;;4947977;28;91678;-70
2021/12/20 04:08:42;;;;;;;69.78;50.72;;;17.10;59.10;;;;;;4944998;28;92334;-70
2021/12/20 04:11:08;;;;;;;67.97;49.95;;;17.30;58.90;;;;;;4953565;28;89697;-70
2021/12/20 04:13:34;;;;;;;68.50;50.35;;;17.40;58.60;;;;;;4943485;28;90732;-70
2021/12/20 04:16:00;;;;;;;69.43;50.53;;;17.50;58.10;;;;;;4947201;28;89827;-70
2021/12/20 04:18:27;;;;;;;69.55;50.47;;;17.70;57.80;;;;;;4951629;28;93224;-70
2021/12/20 04:20:53;;;;;;;68.30;50.25;;;17.70;57.70;;;;;;4948104;28;90645;-70
2021/12/20 04:23:18;;;;;;;68.25;50.17;;;17.80;57.50;;;;;;4950898;28;89684;-70
2021/12/20 04:25:44;;;;;;;68.93;50.42;;;17.90;57.30;;;;;;4943640;28;90388;-70
2021/12/20 04:28:10;;;;;;;68.45;50.25;;;18.00;57.00;;;;;;4943297;28;90502;-70
2021/12/20 04:30:36;;;;;;;69.40;50.38;;;18.10;56.80;;;;;;4948536;28;91656;-70
2021/12/20 04:33:01;;;;;;;68.40;49.95;;;18.20;56.80;;;;;;4966013;28;90533;-70
2021/12/20 04:35:27;;;;;;;67.80;49.92;;;18.20;56.50;;;;;;4950496;28;89813;-70
2021/12/20 04:37:53;;;;;;;68.13;50.30;;;18.30;56.50;;;;;;4967900;28;91933;-70
2021/12/20 04:40:21;;;;;;;68.32;50.17;;;18.30;56.30;;;;;;4946676;28;90183;-70
2021/12/20 04:42:57;;;;;;;68.35;49.90;;;18.40;56.30;;;;;;4952163;28;89994;-70
2021/12/20 04:45:24;;;;;;;68.38;50.28;;;18.40;56.20;;;;;;4949235;28;89667;-70
2021/12/20 04:47:50;;;;;;;68.95;50.05;;;18.40;55.90;;;;;;4952312;28;90650;-70
2021/12/20 04:50:16;;;;;;;69.32;50.28;;;18.50;56.10;;;;;;4947123;28;89900;-70
2021/12/20 04:52:42;;;;;;;67.10;49.75;;;18.50;55.80;;;;;;4962568;28;90042;-70
2021/12/20 04:55:10;;;;;;;67.70;49.97;;;18.50;55.70;;;;;;4943367;28;91292;-70
2021/12/20 04:57:36;;;;;;;67.82;50.00;;;18.50;55.80;;;;;;4957285;28;91718;-70
2021/12/20 05:00:08;;;;;;;67.72;49.97;;;18.50;55.90;;;;;;4938608;28;90179;-70
2021/12/20 05:02:34;;;;;;;67.53;49.65;;;18.50;55.80;;;;;;4946440;28;92334;-70
2021/12/20 05:05:00;;;;;;;67.38;49.95;;;18.50;55.70;;;;;;4943327;28;93233;-70
2021/12/20 05:07:27;;;;;;;68.60;50.25;;;18.50;55.70;;;;;;4947559;28;89977;-70
2021/12/20 05:09:58;;;;;;;68.07;49.72;;;18.50;55.70;;;;;;4945025;28;89544;-70
2021/12/20 05:12:23;;;;;;;68.93;50.38;;;18.50;55.60;;;;;;4962309;28;88945;-70
2021/12/20 05:14:49;;;;;;;67.90;49.85;;;18.50;55.70;;;;;;4950326;28;90623;-70
2021/12/20 05:17:14;;;;;;;68.25;49.97;;;18.50;55.70;;;;;;4949749;28;90277;-70
2021/12/20 05:19:42;;;;;;;69.97;51.10;;;18.40;55.60;;;;;;4945605;28;91701;-70
2021/12/20 05:22:08;;;;;;;70.05;50.42;;;18.40;55.70;;;;;;4946494;28;89909;-70
2021/12/20 05:24:35;;;;;;;68.63;50.10;;;18.40;55.80;;;;;;4961947;28;90538;-70
2021/12/20 05:27:01;;;;;;;68.47;50.00;;;18.40;55.80;;;;;;4940011;28;96243;-71
2021/12/20 05:29:27;;;;;;;68.20;49.97;;;18.30;55.80;;;;;;4961030;28;92424;-71
2021/12/20 05:31:53;;;;;;;69.15;50.30;;;18.40;55.90;;;;;;4947932;28;90738;-70
2021/12/20 05:34:19;;;;;;;67.90;49.80;;;18.30;55.60;;;;;;4950855;28;91027;-70
2021/12/20 05:36:45;;;;;;;69.00;50.38;;;18.30;56.00;;;;;;4948639;28;89067;-71
2021/12/20 05:39:11;;;;;;;69.63;50.55;;;18.20;56.00;;;;;;4947500;28;89940;-70
2021/12/20 05:41:37;;;;;;;68.13;50.10;;;18.20;55.80;;;;;;4944680;28;95972;-70
2021/12/20 05:44:03;;;;;;;67.88;50.00;;;18.20;56.00;;;;;;4935059;28;91768;-70
2021/12/20 05:46:29;;;;;;;68.07;49.85;;;18.20;56.30;;;;;;4939073;28;91242;-70
2021/12/20 05:48:54;;;;;;;68.20;50.20;;;18.20;56.40;;;;;;4942308;28;96358;-70
2021/12/20 05:51:20;;;;;;;68.13;50.05;;;18.30;56.30;;;;;;4944493;28;92178;-70
2021/12/20 05:53:46;;;;;;;70.55;50.65;;;18.40;56.40;;;;;;4948050;28;90051;-71
2021/12/20 05:56:12;;;;;;;68.13;49.60;;;18.40;56.10;;;;;;4936914;28;90543;-70
2021/12/20 05:58:37;;;;;;;69.03;50.60;;;18.60;56.20;;;;;;4939416;28;91431;-73
2021/12/20 06:01:03;;;;;;;69.07;50.17;;;18.60;55.90;;;;;;4946346;28;89423;-74
2021/12/20 06:03:29;;;;;;;69.07;49.95;;;18.80;55.70;;;;;;4951481;28;90137;-73
2021/12/20 06:05:54;;;;;;;69.75;50.58;;;18.90;55.60;;;;;;4942497;28;91069;-70
2021/12/20 06:08:20;;;;;;;70.20;50.28;;;18.90;55.30;;;;;;4961681;28;92551;-71
2021/12/20 06:10:46;;;;;;;69.03;50.60;;;19.00;55.20;;;;;;4941413;28;90347;-71
2021/12/20 06:13:11;;;;;;;69.47;50.15;;;19.10;55.10;;;;;;4948894;28;90418;-71
2021/12/20 06:15:37;;;;;;;68.93;49.85;;;19.10;54.90;;;;;;4944156;28;90652;-71
2021/12/20 06:18:02;;;;;;;70.47;50.60;;;19.20;54.80;;;;;;4944891;28;93028;-71
2021/12/20 06:20:28;;;;;;;69.50;50.17;;;19.30;54.70;;;;;;4945903;28;91255;-71
2021/12/20 06:22:54;;;;;;;69.57;50.00;;;19.30;54.70;;;;;;4946495;28;90812;-72
2021/12/20 06:25:20;;;;;;;69.22;50.20;;;19.30;54.60;;;;;;4932592;28;91011;-71
2021/12/20 06:27:47;;;;;;;68.82;50.25;;;19.30;54.60;;;;;;4934790;28;90784;-71
2021/12/20 06:30:14;;;;;;;69.07;50.17;;;19.40;54.50;;;;;;4934585;28;91730;-72
2021/12/20 06:32:41;;;;;;;71.10;50.58;;;19.40;54.30;;;;;;4934815;28;91112;-70
2021/12/20 06:35:08;;;;;;;70.00;50.78;;;19.40;54.30;;;;;;4945039;28;92933;-71
2021/12/20 06:37:34;;;;;;;69.80;50.42;;;19.40;54.30;;;;;;4940645;28;91530;-70
2021/12/20 06:40:00;;;;;;;70.05;50.80;;;19.50;54.20;;;;;;4961092;28;91668;-70
2021/12/20 06:42:26;;;;;;;68.45;49.90;;;19.50;54.10;;;;;;4938484;28;90988;-71
2021/12/20 06:44:52;;;;;;;70.75;50.78;;;19.40;54.20;;;;;;4909936;28;90544;-73
2021/12/20 06:47:19;;;;;;;70.65;50.72;;;19.40;54.50;;;;;;4937371;28;90863;-73
2021/12/20 06:49:45;;;;;;;72.40;51.10;;;19.30;54.60;;;;;;4946362;28;89194;-73
2021/12/20 06:52:11;;;;;;;73.72;51.17;;;19.60;55.70;;;;;;4961575;28;89943;-72
2021/12/20 06:54:37;;;;;;;70.88;51.13;;;19.80;54.00;;;;;;4944977;28;91454;-73
2021/12/20 06:57:03;;;;;;;71.53;51.20;;;19.70;54.50;;;;;;4941050;28;96839;-72
2021/12/20 06:59:28;;;;;;;73.53;51.15;;;19.50;55.30;;;;;;4941704;28;89869;-73
2021/12/20 07:01:54;;;;;;;71.53;51.55;;;19.30;55.90;;;;;;4948775;28;89900;-72
2021/12/20 07:04:20;;;;;;;72.68;51.33;;;19.10;56.50;;;;;;4936461;28;90416;-73
2021/12/20 07:06:46;;;;;;;74.75;51.72;;;19.10;56.90;;;;;;4932748;28;90082;-73
2021/12/20 07:09:12;;;;;;;73.93;51.75;;;19.10;57.30;;;;;;4945390;28;90081;-72
2021/12/20 07:11:40;;;;;;;76.60;51.53;;;19.20;57.20;;;;;;4954963;28;89923;-72
2021/12/20 07:14:05;;;;;;;74.43;51.28;;;19.20;57.60;;;;;;4943114;28;91376;-73
2021/12/20 07:16:33;;;;;;;73.93;51.72;;;19.10;57.70;;;;;;4941249;28;96077;-73
2021/12/20 07:18:59;;;;;;;72.03;51.13;;;19.10;57.90;;;;;;4949132;28;90484;-72
2021/12/20 07:21:25;;;;;;;72.75;51.60;;;19.10;57.50;;;;;;4945421;28;91745;-72
2021/12/20 07:23:51;;;;;;;74.43;51.38;;;19.20;57.20;;;;;;4945892;28;89595;-72
2021/12/20 07:26:16;;;;;;;71.55;51.15;;;19.40;56.50;;;;;;4943964;28;90983;-73
2021/12/20 07:28:43;;;;;;;74.95;51.05;;;19.60;55.90;;;;;;4937463;28;92250;-73
2021/12/20 07:31:12;;;;;;;75.38;51.45;;;19.70;55.30;;;;;;4936842;28;90649;-72
2021/12/20 07:33:39;;;;;;;73.47;51.75;;;19.50;56.00;;;;;;4947254;28;93779;-72
2021/12/20 07:36:05;;;;;;;72.80;51.22;;;19.40;56.60;;;;;;4942761;28;90804;-72
2021/12/20 07:38:31;;;;;;;78.53;51.75;;;19.30;56.90;;;;;;4937371;28;88798;-73
2021/12/20 07:40:57;;;;;;;74.03;51.35;;;19.30;57.10;;;;;;4941622;28;90434;-73
2021/12/20 07:43:23;;;;;;;72.65;51.60;;;19.20;57.50;;;;;;4935352;28;90694;-72
2021/12/20 07:45:49;;;;;;;75.55;51.72;;;19.20;57.50;;;;;;4942990;28;91139;-72
2021/12/20 07:48:16;;;;;;;72.03;51.47;;;19.40;57.80;;;;;;4943440;28;96478;-72
2021/12/20 07:50:42;;;;;;;74.43;51.30;;;19.70;57.10;;;;;;4939163;28;90351;-72
2021/12/20 07:53:08;;;;;;;72.60;51.35;;;19.90;55.70;;;;;;4946036;28;89617;-72
2021/12/20 07:55:33;;;;;;;71.43;51.13;;;19.90;55.80;;;;;;4944348;28;90438;-72
2021/12/20 07:57:59;;;;;;;72.45;51.25;;;19.90;55.50;;;;;;4941894;28;90679;-72
2021/12/20 08:00:25;;;;;;;75.55;51.30;;;19.80;55.70;;;;;;4943752;28;95044;-72
2021/12/20 08:02:51;;;;;;;74.18;51.53;;;19.80;56.40;;;;;;4948079;28;90184;-72
2021/12/20 08:05:19;;;;;;;76.90;52.25;;;19.70;55.80;;;;;;4961705;28;90066;-72
2021/12/20 08:07:47;;;;;;;74.57;51.58;;;19.80;56.00;;;;;;4950160;28;91728;-71
2021/12/20 08:10:13;;;;;;;74.47;51.58;;;19.70;55.90;;;;;;4944304;28;90882;-71
2021/12/20 08:12:39;;;;;;;75.72;51.75;;;19.80;56.10;;;;;;4948415;28;90940;-71
2021/12/20 08:15:05;;;;;;;74.40;51.38;;;19.70;56.40;;;;;;4946082;28;96364;-71
2021/12/20 08:17:31;;;;;;;74.60;51.45;;;19.70;56.60;;;;;;4947154;28;89530;-71
2021/12/20 08:19:57;;;;;;;73.60;51.33;;;19.70;56.70;;;;;;4938148;28;90114;-72
2021/12/20 08:22:25;;;;;;;78.32;51.67;;;19.80;56.10;;;;;;4938056;28;91065;-71
2021/12/20 08:24:51;;;;;;;75.13;51.45;;;19.80;55.90;;;;;;4922512;28;90700;-72
2021/12/20 08:27:17;;;;;;;75.95;51.67;;;19.70;56.20;;;;;;4931494;28;89910;-72
2021/12/20 08:29:43;;;;;;;75.97;51.55;;;19.70;56.30;;;;;;4943168;28;90297;-72
2021/12/20 08:32:08;;;;;;;80.90;51.35;;;19.70;57.20;;;;;;4932619;28;90977;-72
2021/12/20 08:34:34;;;;;;;75.80;51.50;;;19.70;56.90;;;;;;4932786;28;93108;-72
2021/12/20 08:37:03;;;;;;;76.07;52.00;;;19.70;56.70;;;;;;4940721;28;89514;-72
2021/12/20 08:39:31;;;;;;;74.10;51.33;;;19.70;56.80;;;;;;4948426;28;92000;-72
2021/12/20 08:41:58;;;;;;;72.80;51.35;;;19.60;56.90;;;;;;4943778;28;90263;-72
2021/12/20 08:44:25;;;;;;;75.80;51.50;;;19.60;56.90;;;;;;4939926;28;91072;-73
2021/12/20 08:46:51;;;;;;;81.63;51.95;;;19.70;57.10;;;;;;4944256;28;90675;-72
2021/12/20 08:49:17;;;;;;;75.60;52.05;;;19.70;56.60;;;;;;4946969;28;89963;-72
2021/12/20 08:51:45;;;;;;;79.05;52.10;;;19.70;55.60;;;;;;4958997;28;91151;-72
2021/12/20 08:54:11;;;;;;;74.20;51.70;;;19.60;55.20;;;;;;4942268;28;91289;-71
2021/12/20 08:56:37;;;;;;;74.25;52.10;;;19.70;54.80;;;;;;4940465;28;90002;-72
2021/12/20 08:59:03;;;;;;;75.28;51.80;;;19.60;54.50;;;;;;4935704;28;91618;-71
2021/12/20 09:01:30;;;;;;;78.78;51.90;;;19.70;55.00;;;;;;4947191;28;91484;-72
2021/12/20 09:03:57;;;;;;;76.90;51.97;;;19.70;54.30;;;;;;4944824;28;90420;-71
2021/12/20 09:06:25;;;;;;;76.70;52.22;;;19.70;54.20;;;;;;4948901;28;89694;-71
2021/12/20 09:08:55;;;;;;;75.35;51.85;;;19.70;54.00;;;;;;4948440;28;90043;-71
2021/12/20 09:11:25;;;;;;;79.25;52.17;;;19.60;53.90;;;;;;4944360;28;90116;-71
2021/12/20 09:13:52;;;;;;;78.28;51.45;;;19.60;53.80;;;;;;4943313;28;95257;-71
2021/12/20 09:16:17;;;;;;;78.30;51.65;;;19.60;54.20;;;;;;4937247;28;89905;-72
2021/12/20 09:18:43;;;;;;;75.68;51.55;;;19.60;53.70;;;;;;4935314;28;90520;-73
2021/12/20 09:21:10;;;;;;;76.18;52.00;;;19.60;54.00;;;;;;4943049;28;91052;-72
2021/12/20 09:23:37;;;;;;;73.03;51.78;;;19.60;53.70;;;;;;4943629;28;98428;-73
2021/12/20 09:26:03;;;;;;;76.95;51.75;;;19.60;53.70;;;;;;4938778;28;90321;-72
2021/12/20 09:28:29;;;;;;;74.75;51.38;;;19.50;53.70;;;;;;4934683;28;90646;-73
2021/12/20 09:30:55;;;;;;;76.82;51.92;;;19.50;53.60;;;;;;4941034;28;90740;-73
2021/12/20 09:33:21;;;;;;;80.55;51.60;;;19.50;53.80;;;;;;4939787;28;89778;-72
2021/12/20 09:35:47;;;;;;;78.05;51.80;;;19.40;54.00;;;;;;4951312;28;90319;-73
2021/12/20 09:38:16;;;;;;;75.40;51.45;;;19.30;54.00;;;;;;4951146;28;89825;-72
2021/12/20 09:41:01;;;;;;;80.22;51.45;;;19.30;53.90;;;;;;4946731;28;92161;-72
2021/12/20 09:43:28;;;;;;;73.85;51.20;;;19.40;54.00;;;;;;4943496;28;90588;-73
2021/12/20 09:45:56;;;;;;;76.80;51.53;;;19.40;53.90;;;;;;4937363;28;91309;-72
2021/12/20 09:48:22;;;;;;;74.72;51.58;;;19.30;53.80;;;;;;4946903;28;93071;-72
2021/12/20 09:50:48;;;;;;;75.35;51.60;;;19.30;53.90;;;;;;4952684;28;91351;-72
2021/12/20 09:53:14;;;;;;;77.63;51.55;;;19.30;54.00;;;;;;4942813;28;91566;-73
2021/12/20 09:55:46;;;;;;;73.80;51.45;;;19.30;54.00;;;;;;4923858;28;90289;-71
2021/12/20 09:58:12;;;;;;;77.57;51.90;;;19.30;54.00;;;;;;4939865;28;91793;-72
2021/12/20 10:00:38;;;;;;;74.15;51.45;;;19.30;53.90;;;;;;4922380;28;92288;-71
2021/12/20 10:03:04;;;;;;;77.75;51.47;;;19.30;54.20;;;;;;4929391;28;90345;-71
2021/12/20 10:05:31;;;;;;;76.18;51.58;;;19.20;54.20;;;;;;4922958;28;91264;-73
2021/12/20 10:07:58;;;;;;;73.70;51.38;;;19.20;54.20;;;;;;4943147;28;91637;-72
2021/12/20 10:10:43;;;;;;;76.15;51.40;;;19.20;54.10;;;;;;4929710;28;91308;-71
2021/12/20 10:13:21;;;;;;;77.72;51.35;;;19.20;54.10;;;;;;4952442;28;91152;-72
2021/12/20 10:15:48;;;;;;;80.32;51.50;;;19.20;54.20;;;;;;4925712;28;90977;-72
2021/12/20 10:18:14;;;;;;;73.50;51.35;;;19.10;54.20;;;;;;4926510;28;90792;-72
2021/12/20 10:20:41;;;;;;;75.82;51.15;;;19.20;54.30;;;;;;4924243;28;91092;-72
2021/12/20 10:23:12;;;;;;;75.90;51.45;;;19.20;54.30;;;;;;4939487;28;95560;-71
2021/12/20 10:25:38;;;;;;;80.85;51.92;;;19.20;54.30;;;;;;4934909;28;89483;-72
2021/12/20 10:28:08;;;;;;;75.95;51.00;;;19.20;54.10;;;;;;4945993;28;90116;-71
2021/12/20 10:30:46;;;;;;;81.45;51.60;;;19.20;54.10;;;;;;4946841;28;89789;-72
2021/12/20 10:33:16;;;;;;;75.03;51.25;;;19.20;54.10;;;;;;4941052;28;90814;-71
2021/12/20 10:35:47;;;;;;;78.95;51.38;;;19.20;54.00;;;;;;4946120;28;89782;-72
2021/12/20 10:38:26;;;;;;;77.80;51.67;;;19.20;54.20;;;;;;4948451;28;90797;-73
2021/12/20 10:41:13;;;;;;;74.75;50.97;;;19.10;54.10;;;;;;4936052;28;90373;-72
2021/12/20 10:43:52;;;;;;;74.45;51.15;;;19.10;54.40;;;;;;4932331;28;91924;-72
2021/12/20 10:46:36;;;;;;;74.90;51.03;;;19.20;53.70;;;;;;4935436;28;90681;-72
2021/12/20 10:49:08;;;;;;;76.10;51.15;;;19.20;54.20;;;;;;4923582;28;95631;-71
2021/12/20 10:51:39;;;;;;;75.22;50.92;;;19.20;54.40;;;;;;4935199;28;91175;-72
2021/12/20 10:54:10;;;;;;;79.13;51.38;;;19.10;54.20;;;;;;4942625;28;89754;-73
2021/12/20 10:56:39;;;;;;;77.82;51.88;;;19.10;54.10;;;;;;4961771;28;89321;-72
2021/12/20 10:59:10;;;;;;;80.13;51.53;;;19.10;53.90;;;;;;4938498;28;90234;-72
2021/12/20 11:04:28;;;;;;;80.53;51.35;;;19.10;54.10;;;;;;4942280;28;91531;-72
2021/12/20 11:09:35;;;;;;;75.20;51.42;;;19.10;54.10;;;;;;4903707;28;95730;-74
2021/12/20 11:12:05;;;;;;;74.40;51.15;;;19.10;54.00;;;;;;4905616;28;91397;-73
2021/12/20 11:14:43;;;;;;;75.60;51.58;;;19.10;54.00;;;;;;4904174;28;90054;-72
2021/12/20 11:17:15;;;;;;;76.68;51.20;;;19.10;53.90;;;;;;4907255;28;91519;-71
2021/12/20 11:19:43;;;;;;;76.68;51.42;;;19.10;54.10;;;;;;4907871;28;97112;-72
2021/12/20 11:22:10;;;;;;;76.80;51.50;;;19.10;54.00;;;;;;4912917;28;95347;-72
2021/12/20 11:24:40;;;;;;;76.40;51.40;;;19.10;53.80;;;;;;4913051;28;90650;-72
2021/12/20 11:27:13;;;;;;;76.18;51.22;;;19.10;53.50;;;;;;4914937;28;91096;-73
2021/12/20 11:29:40;;;;;;;77.03;51.38;;;19.10;53.80;;;;;;4915253;28;91928;-72
2021/12/20 11:32:07;;;;;;;77.20;51.35;;;19.10;54.00;;;;;;4920576;28;91021;-72
2021/12/20 11:34:34;;;;;;;76.95;51.35;;;19.10;53.90;;;;;;4914448;28;90881;-71
2021/12/20 11:37:00;;;;;;;75.22;51.38;;;19.20;53.90;;;;;;4916341;28;91157;-72
2021/12/20 11:39:26;;;;;;;78.72;51.15;;;19.20;53.90;;;;;;4901674;28;90977;-72
2021/12/20 11:41:53;;;;;;;76.88;51.63;;;19.40;54.00;;;;;;4919012;28;90876;-72
2021/12/20 11:44:21;;;;;;;78.50;51.45;;;19.60;53.90;;;;;;4917955;28;95925;-71
2021/12/20 11:47:02;;;;;;;76.95;51.72;;;19.70;53.20;;;;;;4909603;28;90901;-72
2021/12/20 11:49:28;;;;;;;77.15;51.72;;;19.90;53.20;;;;;;4906733;28;89535;-72
2021/12/20 11:52:04;;;;;;;82.45;51.53;;;20.20;52.70;;;;;;4898922;28;92372;-71
2021/12/20 11:54:52;;;;;;;78.40;51.55;;;20.30;52.40;;;;;;4899465;28;97109;-71
2021/12/20 11:57:36;;;;;;;78.13;51.80;;;20.50;51.70;;;;;;4892982;28;91071;-72
2021/12/20 12:00:22;;;;;;;77.60;51.65;;;20.60;51.20;;;;;;4885962;28;91606;-71
2021/12/20 12:02:58;;;;;;;77.85;51.78;;;20.80;51.60;;;;;;4893072;28;90334;-72
2021/12/20 12:05:29;;;;;;;82.75;51.95;;;21.00;51.60;;;;;;4906955;28;91169;-73
2021/12/20 12:08:14;;;;;;;;;;;21.20;51.40;;;;;;4900465;28;96251;-74
2021/12/20 12:10:40;;;;;;;76.32;51.53;;;21.30;51.30;;;;;;4909144;28;93523;-73
2021/12/20 12:13:14;;;;;;;76.82;51.75;;;21.50;51.20;;;;;;4906739;28;89848;-74
2021/12/20 12:16:16;;;;;;;79.03;51.95;;;21.60;51.20;;;;;;4916494;28;91078;-72
2021/12/20 12:18:50;;;;;;;79.72;51.92;;;21.70;51.30;;;;;;4911777;28;89936;-73
2021/12/20 12:21:46;;;;;;;82.40;51.88;;;21.80;51.00;;;;;;4909088;28;90994;-72
2021/12/20 12:24:14;;;;;;;78.90;51.83;;;21.90;51.00;;;;;;4912692;28;91845;-72
2021/12/20 12:26:43;;;;;;;78.43;51.78;;;21.90;50.90;;;;;;4906795;28;92003;-72
2021/12/20 12:29:23;;;;;;;78.53;51.58;;;21.90;50.70;;;;;;4912381;28;91743;-74
2021/12/20 12:31:56;;;;;;;78.05;51.78;;;22.00;50.70;;;;;;4903611;28;91136;-71
2021/12/20 12:34:23;;;;;;;80.35;52.03;;;22.10;50.80;;;;;;4907839;28;90782;-74
2021/12/20 12:37:19;;;;;;;79.05;52.20;;;22.10;50.80;;;;;;4918655;28;90706;-75
2021/12/20 12:39:46;;;;;;;80.20;52.22;;;22.10;51.00;;;;;;4928146;28;91945;-74
2021/12/20 12:42:11;;;;;;;78.22;52.05;;;22.10;50.70;;;;;;4904796;28;90800;-74
2021/12/20 12:44:47;;;;;;;77.15;51.88;;;22.10;51.00;;;;;;4906392;28;96410;-73
2021/12/20 12:47:13;;;;;;;76.68;51.83;;;22.20;51.20;;;;;;4910408;28;92768;-74
2021/12/20 12:49:41;;;;;;;77.70;51.83;;;22.30;50.70;;;;;;4911053;28;91178;-73